createdAt,value
2022-11-04T00:00:50.218Z,38.65
2022-11-04T00:03:19.944Z,38.10
2022-11-04T00:05:48.193Z,34.17
2022-11-04T00:08:25.253Z,34.10
2022-11-04T00:11:13.268Z,28.25
2022-11-04T00:13:42.191Z,26.65
2022-11-04T00:16:28.575Z,23.92
2022-11-04T00:18:58.722Z,21.40
2022-11-04T00:21:44.430Z,20.35
2022-11-04T00:24:31.697Z,18.48
2022-11-04T00:27:17.349Z,14.55
2022-11-04T00:29:45.584Z,14.70
2022-11-04T00:32:31.193Z,15.02
2022-11-04T00:35:00.761Z,16.67
2022-11-04T00:37:28.916Z,17.40
2022-11-04T00:39:57.087Z,16.90
2022-11-04T00:42:25.261Z,18.45
2022-11-04T00:44:53.399Z,16.67
2022-11-04T00:47:21.577Z,17.05
2022-11-04T00:49:49.766Z,16.67
2022-11-04T00:52:19.415Z,16.73
2022-11-04T00:54:47.622Z,16.42
2022-11-04T00:57:16.555Z,16.85
2022-11-04T00:59:45.745Z,16.80
2022-11-04T01:02:14.268Z,17.40
2022-11-04T01:04:42.539Z,16.75
2022-11-04T01:07:10.712Z,17.45
2022-11-04T01:09:40.548Z,16.27
2022-11-04T01:12:08.880Z,15.85
2022-11-04T01:14:37.281Z,15.38
2022-11-04T01:17:05.588Z,15.25
2022-11-04T01:19:34.416Z,15.98
2022-11-04T01:22:02.615Z,14.90
2022-11-04T01:24:30.912Z,13.57
2022-11-04T01:27:00.529Z,16.02
2022-11-04T01:29:28.790Z,13.98
2022-11-04T01:31:56.965Z,13.55
2022-11-04T01:34:25.157Z,13.38
2022-11-04T01:36:53.313Z,14.43
2022-11-04T01:39:21.509Z,14.77
2022-11-04T01:41:49.739Z,14.35
2022-11-04T01:44:57.347Z,12.98
2022-11-04T01:47:33.405Z,14.48
2022-11-04T01:50:06.154Z,13.48
2022-11-04T01:52:38.841Z,13.23
2022-11-04T01:55:13.995Z,13.10
2022-11-04T01:57:46.680Z,14.02
2022-11-04T02:00:18.072Z,14.93
2022-11-04T02:02:54.922Z,14.52
2022-11-04T02:05:24.213Z,15.00
2022-11-04T02:07:57.924Z,14.15
2022-11-04T02:10:28.839Z,13.73
2022-11-04T02:12:57.133Z,15.00
2022-11-04T02:15:36.309Z,15.57
2022-11-04T02:18:19.737Z,14.55
2022-11-04T02:21:12.918Z,15.27
2022-11-04T02:24:03.700Z,15.13
2022-11-04T02:27:14.815Z,14.32
2022-11-04T02:30:07.714Z,14.35
2022-11-04T02:32:43.892Z,14.02
2022-11-04T02:35:19.896Z,15.57
2022-11-04T02:37:55.610Z,15.15
2022-11-04T02:40:32.649Z,15.48
2022-11-04T02:43:05.033Z,15.68
2022-11-04T02:45:42.125Z,15.75
2022-11-04T02:48:16.737Z,14.00
2022-11-04T02:50:50.986Z,14.05
2022-11-04T02:53:23.896Z,13.45
2022-11-04T02:55:56.676Z,12.18
2022-11-04T02:58:29.923Z,12.18
2022-11-04T03:01:02.391Z,12.35
2022-11-04T03:03:35.601Z,11.18
2022-11-04T03:06:05.997Z,12.30
2022-11-04T03:08:36.841Z,12.57
2022-11-04T03:11:12.397Z,11.52
2022-11-04T03:13:45.699Z,12.32
2022-11-04T03:16:18.949Z,11.60
2022-11-04T03:18:58.369Z,9.00
2022-11-04T03:21:28.415Z,8.52
2022-11-04T03:23:56.989Z,9.57
2022-11-04T03:26:29.889Z,9.52
2022-11-04T03:29:11.282Z,9.95
2022-11-04T03:31:46.277Z,10.80
2022-11-04T03:34:14.589Z,11.75
2022-11-04T03:36:42.932Z,10.77
2022-11-04T03:39:11.454Z,10.25
2022-11-04T03:41:43.989Z,11.25
2022-11-04T03:44:12.337Z,11.80
2022-11-04T03:46:42.477Z,12.48
2022-11-04T03:49:12.935Z,12.75
2022-11-04T03:51:41.124Z,13.45
2022-11-04T03:54:09.529Z,13.38
2022-11-04T03:57:00.892Z,14.23
2022-11-04T03:59:54.176Z,12.48
2022-11-04T04:02:35.354Z,15.25
2022-11-04T04:05:08.055Z,13.77
2022-11-04T04:07:41.077Z,12.60
2022-11-04T04:10:33.856Z,12.98
2022-11-04T04:13:04.679Z,11.77
2022-11-04T04:15:44.175Z,12.93
2022-11-04T04:18:16.725Z,11.85
2022-11-04T04:20:48.174Z,11.23
2022-11-04T04:23:37.148Z,11.55
2022-11-04T04:26:25.244Z,10.43
2022-11-04T04:28:56.687Z,11.90
2022-11-04T04:31:44.113Z,12.55
2022-11-04T04:34:13.715Z,13.48
2022-11-04T04:36:47.357Z,14.27
2022-11-04T04:39:36.688Z,13.93
2022-11-04T04:42:23.209Z,12.75
2022-11-04T04:45:00.817Z,13.30
2022-11-04T04:47:33.137Z,14.20
2022-11-04T04:50:03.841Z,14.63
2022-11-04T04:52:34.846Z,13.15
2022-11-04T04:55:03.044Z,13.38
2022-11-04T04:57:31.251Z,14.90
2022-11-04T04:59:59.424Z,13.70
2022-11-04T05:02:27.770Z,13.88
2022-11-04T05:04:56.432Z,12.98
2022-11-04T05:07:26.077Z,13.55
2022-11-04T05:09:54.343Z,14.35
2022-11-04T05:12:22.713Z,12.63
2022-11-04T05:14:51.046Z,12.55
2022-11-04T05:17:19.262Z,12.93
2022-11-04T05:19:47.442Z,13.07
2022-11-04T05:22:15.568Z,12.32
2022-11-04T05:24:45.114Z,13.73
2022-11-04T05:27:13.295Z,13.45
2022-11-04T05:29:41.480Z,12.15
2022-11-04T05:32:09.664Z,12.85
2022-11-04T05:34:37.851Z,12.82
2022-11-04T05:37:05.992Z,14.05
2022-11-04T05:39:34.102Z,13.77
2022-11-04T05:42:03.637Z,14.60
2022-11-04T05:44:31.872Z,13.43
2022-11-04T05:47:00.039Z,14.70
2022-11-04T05:49:28.226Z,14.40
2022-11-04T05:51:56.480Z,15.20
2022-11-04T05:54:24.937Z,13.10
2022-11-04T05:56:53.285Z,15.18
2022-11-04T05:59:22.793Z,13.23
2022-11-04T06:01:51.307Z,15.00
2022-11-04T06:04:20.478Z,14.68
2022-11-04T06:06:48.729Z,13.90
2022-11-04T06:09:16.845Z,13.20
2022-11-04T06:11:45.344Z,14.90
2022-11-04T06:14:18.626Z,14.55
2022-11-04T06:16:48.561Z,14.15
2022-11-04T06:19:16.712Z,14.43
2022-11-04T06:21:44.916Z,13.32
2022-11-04T06:24:13.120Z,14.35
2022-11-04T06:26:41.228Z,13.35
2022-11-04T06:29:09.988Z,13.35
2022-11-04T06:31:38.269Z,13.18
2022-11-04T06:34:07.917Z,13.52
2022-11-04T06:36:36.210Z,12.23
2022-11-04T06:39:05.649Z,13.68
2022-11-04T06:41:33.820Z,14.05
2022-11-04T06:44:02.118Z,14.38
2022-11-04T06:46:33.452Z,13.70
2022-11-04T06:49:01.628Z,13.63
2022-11-04T06:51:31.245Z,12.80
2022-11-04T06:53:59.561Z,12.30
2022-11-04T06:56:27.852Z,13.10
2022-11-04T06:58:56.831Z,13.90
2022-11-04T07:01:27.413Z,12.27
2022-11-04T07:03:57.458Z,12.77
2022-11-04T07:06:26.246Z,13.07
2022-11-04T07:08:57.437Z,13.63
2022-11-04T07:11:26.196Z,12.85
2022-11-04T07:13:54.472Z,13.52
2022-11-04T07:16:22.718Z,12.40
2022-11-04T07:18:51.900Z,12.07
2022-11-04T07:21:20.074Z,12.48
2022-11-04T07:23:48.275Z,11.07
2022-11-04T07:26:17.817Z,12.95
2022-11-04T07:28:46.000Z,13.50
2022-11-04T07:31:15.027Z,13.65
2022-11-04T07:33:43.201Z,13.10
2022-11-04T07:36:13.997Z,12.52
2022-11-04T07:38:42.156Z,12.52
2022-11-04T07:41:10.503Z,12.18
2022-11-04T07:43:40.073Z,11.93
2022-11-04T07:46:11.946Z,12.75
2022-11-04T07:48:40.652Z,12.23
2022-11-04T07:51:10.722Z,11.95
2022-11-04T07:53:39.087Z,13.57
2022-11-04T07:56:09.105Z,12.00
2022-11-04T07:58:37.254Z,12.57
2022-11-04T08:01:09.097Z,13.48
2022-11-04T08:03:38.041Z,12.32
2022-11-04T08:06:07.916Z,11.90
2022-11-04T08:08:36.157Z,10.50
2022-11-04T08:11:06.590Z,11.73
2022-11-04T08:13:36.441Z,12.70
2022-11-04T08:16:07.467Z,11.35
2022-11-04T08:18:35.896Z,11.77
2022-11-04T08:21:04.926Z,13.85
2022-11-04T08:23:34.491Z,12.65
2022-11-04T08:26:03.241Z,12.68
2022-11-04T08:28:31.413Z,12.80
2022-11-04T08:31:02.669Z,11.95
2022-11-04T08:33:33.748Z,12.70
2022-11-04T08:36:07.115Z,10.82
2022-11-04T08:38:35.499Z,12.57
2022-11-04T08:41:05.727Z,12.40
2022-11-04T08:43:35.035Z,11.85
2022-11-04T08:46:05.157Z,12.60
2022-11-04T08:48:35.711Z,11.55
2022-11-04T08:51:05.851Z,12.63
2022-11-04T08:53:34.294Z,12.43
2022-11-04T08:56:10.898Z,12.05
2022-11-04T08:58:39.216Z,13.30
2022-11-04T09:01:08.200Z,12.25
2022-11-04T09:03:38.655Z,12.27
2022-11-04T09:06:07.816Z,10.27
2022-11-04T09:08:37.975Z,16.25
2022-11-04T09:11:08.482Z,17.35
2022-11-04T09:13:39.598Z,18.85
2022-11-04T09:16:10.253Z,19.77
2022-11-04T09:18:39.912Z,16.77
2022-11-04T09:21:09.945Z,17.20
2022-11-04T09:23:38.377Z,16.17
2022-11-04T09:26:09.036Z,15.55
2022-11-04T09:28:37.354Z,14.80
2022-11-04T09:31:09.934Z,15.85
2022-11-04T09:33:39.681Z,13.95
2022-11-04T09:36:09.304Z,12.32
2022-11-04T09:38:37.963Z,11.65
2022-11-04T09:41:24.953Z,10.50
2022-11-04T09:43:58.569Z,9.13
2022-11-04T09:46:28.013Z,7.50
2022-11-04T09:48:59.257Z,7.07
2022-11-04T09:51:56.273Z,6.78
2022-11-04T09:54:22.192Z,6.85
2022-11-04T09:56:53.124Z,7.43
2022-11-04T09:59:28.413Z,6.72
2022-11-04T10:02:05.356Z,8.35
2022-11-04T10:04:46.672Z,7.07
2022-11-04T10:07:31.829Z,8.88
2022-11-04T10:10:03.344Z,5.60
2022-11-04T10:12:42.790Z,5.53
2022-11-04T10:15:29.360Z,3.67
2022-11-04T10:18:02.594Z,4.03
2022-11-04T10:20:43.768Z,5.30
2022-11-04T10:23:21.509Z,4.72
2022-11-04T10:25:50.986Z,4.50
2022-11-04T10:28:20.898Z,4.68
2022-11-04T10:30:50.335Z,4.00
2022-11-04T10:33:23.185Z,4.60
2022-11-04T10:35:57.206Z,4.97
2022-11-04T10:38:30.090Z,5.25
2022-11-04T10:41:03.004Z,5.63
2022-11-04T10:43:35.028Z,8.00
2022-11-04T10:46:09.112Z,5.70
2022-11-04T10:48:39.180Z,6.68
2022-11-04T10:51:09.162Z,5.55
2022-11-04T10:53:37.807Z,6.47
2022-11-04T10:56:09.637Z,6.50
2022-11-04T10:58:39.797Z,6.88
2022-11-04T11:01:23.163Z,5.38
2022-11-04T11:03:51.605Z,6.35
2022-11-04T11:06:26.398Z,6.13
2022-11-04T11:08:56.092Z,5.00
2022-11-04T11:11:37.589Z,5.75
2022-11-04T11:14:06.036Z,4.72
2022-11-04T11:16:34.474Z,5.70
2022-11-04T11:19:17.634Z,4.55
2022-11-04T11:21:49.184Z,4.47
2022-11-04T11:24:20.688Z,5.40
2022-11-04T11:26:49.916Z,4.65
2022-11-04T11:29:22.020Z,5.28
2022-11-04T11:31:51.888Z,5.05
2022-11-04T11:34:22.745Z,5.25
2022-11-04T11:36:52.619Z,5.15
2022-11-04T11:39:23.131Z,5.82
2022-11-04T11:41:54.176Z,4.82
2022-11-04T11:44:27.226Z,4.63
2022-11-04T11:46:56.698Z,4.45
2022-11-04T11:49:27.188Z,4.25
2022-11-04T11:51:57.486Z,5.10
2022-11-04T11:54:33.401Z,5.28
2022-11-04T11:57:15.231Z,5.53
2022-11-04T12:02:43.063Z,4.60
2022-11-04T12:10:58.011Z,5.55
2022-11-04T12:13:29.640Z,4.28
2022-11-04T12:16:09.520Z,4.15
2022-11-04T12:18:49.165Z,3.88
2022-11-04T12:21:21.382Z,3.40
2022-11-04T12:23:56.307Z,3.88
2022-11-04T12:26:31.665Z,4.97
2022-11-04T12:29:15.918Z,3.70
2022-11-04T12:31:49.425Z,4.22
2022-11-04T12:34:22.774Z,4.50
2022-11-04T12:36:58.412Z,3.97
2022-11-04T12:39:33.884Z,6.30
2022-11-04T12:42:20.630Z,4.75
2022-11-04T12:44:55.306Z,3.40
2022-11-04T12:47:29.421Z,3.15
2022-11-04T12:50:05.412Z,3.45
2022-11-04T12:52:44.442Z,2.40
2022-11-04T12:55:30.693Z,2.65
2022-11-04T12:58:04.659Z,3.40
2022-11-04T13:00:36.683Z,3.47
2022-11-04T13:03:11.223Z,4.10
2022-11-04T13:05:43.593Z,3.97
2022-11-04T13:08:15.463Z,4.70
2022-11-04T13:10:48.345Z,5.45
2022-11-04T13:13:18.485Z,3.92
2022-11-04T13:15:49.025Z,3.55
2022-11-04T13:18:19.444Z,3.20
2022-11-04T13:20:51.127Z,4.63
2022-11-04T13:23:21.943Z,3.40
2022-11-04T13:25:53.437Z,3.60
2022-11-04T13:28:23.543Z,3.72
2022-11-04T13:30:55.423Z,3.17
2022-11-04T13:33:28.441Z,2.85
2022-11-04T13:36:02.450Z,2.08
2022-11-04T13:38:33.951Z,2.67
2022-11-04T13:41:13.497Z,2.00
2022-11-04T13:43:49.452Z,1.73
2022-11-04T13:46:20.373Z,2.17
2022-11-04T13:48:54.904Z,1.80
2022-11-04T13:51:23.474Z,1.60
2022-11-04T13:53:53.218Z,2.53
2022-11-04T13:56:33.709Z,1.92
2022-11-04T13:59:04.503Z,2.08
2022-11-04T14:01:33.574Z,2.20
2022-11-04T14:04:20.957Z,2.10
2022-11-04T14:06:51.978Z,2.08
2022-11-04T14:09:38.030Z,1.90
2022-11-04T14:12:25.100Z,2.40
2022-11-04T14:14:55.816Z,2.00
2022-11-04T14:17:42.796Z,2.40
2022-11-04T14:20:11.964Z,2.30
2022-11-04T14:22:49.341Z,2.10
2022-11-04T14:25:28.454Z,2.45
2022-11-04T14:27:57.796Z,2.35
2022-11-04T14:30:35.871Z,2.40
2022-11-04T14:33:06.392Z,2.17
2022-11-04T14:35:35.118Z,2.40
2022-11-04T14:38:07.499Z,2.00
2022-11-04T14:40:49.835Z,1.90
2022-11-04T14:43:28.651Z,2.00
2022-11-04T14:45:58.964Z,2.22
2022-11-04T14:48:27.684Z,2.15
2022-11-04T14:50:56.736Z,2.35
2022-11-04T14:53:28.512Z,1.77
2022-11-04T14:56:07.338Z,2.13
2022-11-04T14:58:35.787Z,2.35
2022-11-04T15:01:07.707Z,2.35
2022-11-04T15:06:40.266Z,1.92
2022-11-04T15:09:20.487Z,2.20
2022-11-04T15:12:06.563Z,2.28
2022-11-04T15:14:38.088Z,2.22
2022-11-04T15:17:07.944Z,2.63
2022-11-04T15:19:37.334Z,2.50
2022-11-04T15:22:06.678Z,2.47
2022-11-04T15:24:36.176Z,2.28
2022-11-04T15:27:06.311Z,2.10
2022-11-04T15:29:35.048Z,2.00
2022-11-04T15:32:05.357Z,2.00
2022-11-04T15:34:36.073Z,1.90
2022-11-04T15:37:05.939Z,2.15
2022-11-04T15:39:35.640Z,2.20
2022-11-04T15:42:22.736Z,2.92
2022-11-04T15:44:52.747Z,2.00
2022-11-04T15:47:23.761Z,2.30
2022-11-04T15:49:54.503Z,2.17
2022-11-04T15:52:24.429Z,1.90
2022-11-04T15:54:54.408Z,1.80
2022-11-04T15:57:24.397Z,1.92
2022-11-04T15:59:54.225Z,1.77
2022-11-04T16:02:27.845Z,1.98
2022-11-04T16:05:09.387Z,2.20
2022-11-04T16:07:40.013Z,1.80
2022-11-04T16:10:26.560Z,1.80
2022-11-04T16:12:57.661Z,1.83
2022-11-04T16:15:34.528Z,1.75
2022-11-04T16:18:03.919Z,1.90
2022-11-04T16:20:35.568Z,1.70
2022-11-04T16:23:04.709Z,2.00
2022-11-04T16:25:35.443Z,2.10
2022-11-04T16:28:04.628Z,1.67
2022-11-04T16:30:33.105Z,1.77
2022-11-04T16:33:11.564Z,1.95
2022-11-04T16:35:43.145Z,2.38
2022-11-04T16:38:11.590Z,2.17
2022-11-04T16:40:40.105Z,2.38
2022-11-04T16:43:08.796Z,2.47
2022-11-04T16:45:39.078Z,3.63
2022-11-04T16:48:08.096Z,2.50
2022-11-04T16:50:36.410Z,2.50
2022-11-04T16:53:05.926Z,2.60
2022-11-04T16:55:34.319Z,2.13
2022-11-04T16:58:04.686Z,2.30
2022-11-04T17:00:34.003Z,2.20
2022-11-04T17:03:05.125Z,2.20
2022-11-04T17:05:33.311Z,2.22
2022-11-04T17:08:05.256Z,2.20
2022-11-04T17:10:37.085Z,2.22
2022-11-04T17:13:05.246Z,2.20
2022-11-04T17:15:33.475Z,2.17
2022-11-04T17:18:01.701Z,2.20
2022-11-04T17:20:31.837Z,2.22
2022-11-04T17:23:00.025Z,2.00
2022-11-04T17:25:30.227Z,2.45
2022-11-04T17:27:59.770Z,1.90
2022-11-04T17:30:27.974Z,2.45
2022-11-04T17:32:56.178Z,2.30
2022-11-04T17:35:24.734Z,2.40
2022-11-04T17:37:53.831Z,2.10
2022-11-04T17:40:24.898Z,2.30
2022-11-04T17:43:12.560Z,2.38
2022-11-04T17:45:43.669Z,2.13
2022-11-04T17:48:14.126Z,2.20
2022-11-04T17:50:42.637Z,2.53
2022-11-04T17:53:11.461Z,2.55
2022-11-04T17:55:41.510Z,3.30
2022-11-04T17:58:10.085Z,3.35
2022-11-04T18:00:38.385Z,3.25
2022-11-04T18:03:09.034Z,2.90
2022-11-04T18:05:38.550Z,2.83
2022-11-04T18:08:06.787Z,2.90
2022-11-04T18:10:35.022Z,2.47
2022-11-04T18:13:02.174Z,2.40
2022-11-04T18:15:31.099Z,2.33
2022-11-04T18:17:59.760Z,2.30
2022-11-04T18:20:29.387Z,2.70
2022-11-04T18:22:57.566Z,2.70
2022-11-04T18:25:25.819Z,2.47
2022-11-04T18:27:53.980Z,2.85
2022-11-04T18:30:22.544Z,2.80
2022-11-04T18:32:50.846Z,2.80
2022-11-04T18:35:19.253Z,2.93
2022-11-04T18:37:48.870Z,2.60
2022-11-04T18:40:17.852Z,2.50
2022-11-04T18:42:46.026Z,2.50
2022-11-04T18:45:14.291Z,2.47
2022-11-04T18:47:42.446Z,2.70
2022-11-04T18:50:11.556Z,2.70
2022-11-04T18:52:40.476Z,3.20
2022-11-04T18:55:11.013Z,2.90
2022-11-04T18:57:39.164Z,3.10
2022-11-04T19:00:12.891Z,3.43
2022-11-04T19:02:44.136Z,4.20
2022-11-04T19:05:12.477Z,4.30
2022-11-04T19:07:42.004Z,3.80
2022-11-04T19:10:12.783Z,4.13
2022-11-04T19:12:58.916Z,4.17
2022-11-04T19:15:27.302Z,4.60
2022-11-04T19:17:55.475Z,4.87
2022-11-04T19:20:24.013Z,5.07
2022-11-04T19:22:52.335Z,5.10
2022-11-04T19:25:22.353Z,4.23
2022-11-04T19:28:11.563Z,4.40
2022-11-04T19:30:38.760Z,4.43
2022-11-04T19:33:06.973Z,3.90
2022-11-04T19:35:35.098Z,4.33
2022-11-04T19:38:03.405Z,4.70
2022-11-04T19:40:34.707Z,4.10
2022-11-04T19:43:10.973Z,4.57
2022-11-04T19:45:40.729Z,3.80
2022-11-04T19:48:09.826Z,4.20
2022-11-04T19:50:43.083Z,4.17
2022-11-04T19:53:11.837Z,3.97
2022-11-04T19:55:41.533Z,4.33
2022-11-04T19:58:10.086Z,4.20
2022-11-04T20:00:41.041Z,4.03
2022-11-04T20:03:09.301Z,4.67
2022-11-04T20:05:41.008Z,4.80
2022-11-04T20:08:10.284Z,5.13
2022-11-04T20:10:41.600Z,4.87
2022-11-04T20:13:33.560Z,4.87
2022-11-04T20:16:03.124Z,4.90
2022-11-04T20:18:31.362Z,4.47
2022-11-04T20:20:59.508Z,4.97
2022-11-04T20:23:27.738Z,5.10
2022-11-04T20:25:57.389Z,4.87
2022-11-04T20:28:26.316Z,4.93
2022-11-04T20:30:54.542Z,6.00
2022-11-04T20:33:22.829Z,4.90
2022-11-04T20:35:51.033Z,5.57
2022-11-04T20:38:19.232Z,4.80
2022-11-04T20:40:48.391Z,5.13
2022-11-04T20:43:17.914Z,4.87
2022-11-04T20:45:52.075Z,5.10
2022-11-04T20:48:20.602Z,4.83
2022-11-04T20:50:48.882Z,4.60
2022-11-04T20:53:17.128Z,4.67
2022-11-04T20:55:45.317Z,4.77
2022-11-04T20:58:13.626Z,4.80
2022-11-04T21:00:43.200Z,5.20
2022-11-04T21:03:11.424Z,4.50
2022-11-04T21:05:39.973Z,4.60
2022-11-04T21:08:08.481Z,4.50
2022-11-04T21:10:37.470Z,4.20
2022-11-04T21:13:05.639Z,4.17
2022-11-04T21:15:44.407Z,3.97
2022-11-04T21:18:14.398Z,3.47
2022-11-04T21:20:43.691Z,3.90
2022-11-04T21:23:12.942Z,4.07
2022-11-04T21:25:43.369Z,3.80
2022-11-04T21:28:12.311Z,3.30
2022-11-04T21:30:44.702Z,3.40
2022-11-04T21:33:14.405Z,3.30
2022-11-04T21:35:44.038Z,3.13
2022-11-04T21:38:15.491Z,3.20
2022-11-04T21:40:44.585Z,2.70
2022-11-04T21:43:14.039Z,2.83
2022-11-04T21:45:42.222Z,2.80
2022-11-04T21:48:10.736Z,2.60
2022-11-04T21:50:40.673Z,2.80
2022-11-04T21:53:08.921Z,2.63
2022-11-04T21:55:37.066Z,2.60
2022-11-04T21:58:05.226Z,2.50
2022-11-04T22:00:33.443Z,2.53
2022-11-04T22:03:01.605Z,2.40
2022-11-04T22:05:29.730Z,2.27
2022-11-04T22:08:16.688Z,2.20
2022-11-04T22:10:45.335Z,1.90
2022-11-04T22:13:13.571Z,2.07
2022-11-04T22:16:00.614Z,2.20
2022-11-04T22:18:30.441Z,2.03
2022-11-04T22:21:02.267Z,2.10
2022-11-04T22:23:32.087Z,2.10
2022-11-04T22:26:01.361Z,2.20
2022-11-04T22:28:30.174Z,2.10
2022-11-04T22:30:58.541Z,2.10
2022-11-04T22:33:31.511Z,1.70
2022-11-04T22:36:00.178Z,1.93
2022-11-04T22:38:28.468Z,1.70
2022-11-04T22:40:59.499Z,1.70
2022-11-04T22:43:28.090Z,1.73
2022-11-04T22:45:57.698Z,1.60
2022-11-04T22:48:25.968Z,1.80
2022-11-04T22:50:58.784Z,1.70
2022-11-04T22:53:27.402Z,1.63
2022-11-04T22:56:00.130Z,1.50
2022-11-04T22:58:28.825Z,1.40
2022-11-04T23:00:59.147Z,1.60
2022-11-04T23:03:27.912Z,1.50
2022-11-04T23:05:57.008Z,1.50
2022-11-04T23:08:25.850Z,1.27
2022-11-04T23:11:17.724Z,1.43
2022-11-04T23:14:08.740Z,1.60
2022-11-04T23:16:54.664Z,1.30
2022-11-04T23:19:28.281Z,1.27
2022-11-04T23:22:16.213Z,1.30
2022-11-04T23:25:02.142Z,1.50
2022-11-04T23:27:49.208Z,1.30
2022-11-04T23:30:25.612Z,1.40
2022-11-04T23:32:56.214Z,1.40
2022-11-04T23:35:43.556Z,1.57
2022-11-04T23:38:11.841Z,1.40
2022-11-04T23:40:40.206Z,1.30
2022-11-04T23:43:09.205Z,1.40
2022-11-04T23:46:09.389Z,1.50
2022-11-04T23:48:55.232Z,1.50
2022-11-04T23:51:40.640Z,1.50
2022-11-04T23:54:26.613Z,1.30
2022-11-04T23:57:12.183Z,1.43
2022-11-04T23:59:59.130Z,1.30
